sensor_id;sensor_type;location;lat;lon;timestamp;P1;durP1;ratioP1;P2;durP2;ratioP2
8131;SDS011;4107;49.212;9.198;2022-08-05T00:03:41;3.00;;;2.80;;
8131;SDS011;4107;49.212;9.198;2022-08-05T00:06:06;3.10;;;2.63;;
8131;SDS011;4107;49.212;9.198;2022-08-05T00:08:32;6.17;;;3.07;;
8131;SDS011;4107;49.212;9.198;2022-08-05T00:10:59;5.30;;;2.60;;
8131;SDS011;4107;49.212;9.198;2022-08-05T00:13:25;3.13;;;2.73;;
8131;SDS011;4107;49.212;9.198;2022-08-05T00:15:51;4.80;;;2.90;;
8131;SDS011;4107;49.212;9.198;2022-08-05T00:18:16;5.10;;;2.87;;
8131;SDS011;4107;49.212;9.198;2022-08-05T00:20:42;3.50;;;3.20;;
8131;SDS011;4107;49.212;9.198;2022-08-05T00:23:08;3.37;;;3.07;;
8131;SDS011;4107;49.212;9.198;2022-08-05T00:25:33;4.20;;;3.43;;
8131;SDS011;4107;49.212;9.198;2022-08-05T00:28:02;3.17;;;2.93;;
8131;SDS011;4107;49.212;9.198;2022-08-05T00:30:27;3.20;;;2.90;;
8131;SDS011;4107;49.212;9.198;2022-08-05T00:32:53;3.30;;;3.00;;
8131;SDS011;4107;49.212;9.198;2022-08-05T00:35:18;3.20;;;2.90;;
8131;SDS011;4107;49.212;9.198;2022-08-05T00:37:44;3.27;;;3.03;;
8131;SDS011;4107;49.212;9.198;2022-08-05T00:40:10;3.00;;;2.70;;
8131;SDS011;4107;49.212;9.198;2022-08-05T00:42:36;3.00;;;2.80;;
8131;SDS011;4107;49.212;9.198;2022-08-05T00:45:04;3.60;;;2.70;;
8131;SDS011;4107;49.212;9.198;2022-08-05T00:47:31;3.07;;;2.60;;
8131;SDS011;4107;49.212;9.198;2022-08-05T00:49:57;2.60;;;2.40;;
8131;SDS011;4107;49.212;9.198;2022-08-05T00:52:23;2.67;;;2.47;;
8131;SDS011;4107;49.212;9.198;2022-08-05T00:54:48;5.10;;;2.67;;
8131;SDS011;4107;49.212;9.198;2022-08-05T00:57:14;3.20;;;2.80;;
8131;SDS011;4107;49.212;9.198;2022-08-05T00:59:40;5.13;;;2.80;;
8131;SDS011;4107;49.212;9.198;2022-08-05T01:02:05;3.90;;;2.67;;
8131;SDS011;4107;49.212;9.198;2022-08-05T01:04:31;2.70;;;2.50;;
8131;SDS011;4107;49.212;9.198;2022-08-05T01:06:57;2.90;;;2.70;;
8131;SDS011;4107;49.212;9.198;2022-08-05T01:09:22;3.50;;;2.80;;
8131;SDS011;4107;49.212;9.198;2022-08-05T01:11:48;4.03;;;2.97;;
8131;SDS011;4107;49.212;9.198;2022-08-05T01:14:38;2.80;;;2.60;;
8131;SDS011;4107;49.212;9.198;2022-08-05T01:17:26;3.63;;;2.70;;
8131;SDS011;4107;49.212;9.198;2022-08-05T01:20:45;5.50;;;2.70;;
8131;SDS011;4107;49.212;9.198;2022-08-05T01:34:16;3.47;;;2.90;;
8131;SDS011;4107;49.212;9.198;2022-08-05T01:37:31;3.13;;;2.80;;
8131;SDS011;4107;49.212;9.198;2022-08-05T01:39:37;4.47;;;2.80;;
8131;SDS011;4107;49.212;9.198;2022-08-05T01:42:05;2.90;;;2.70;;
8131;SDS011;4107;49.212;9.198;2022-08-05T01:44:34;3.20;;;2.90;;
8131;SDS011;4107;49.212;9.198;2022-08-05T01:47:01;5.43;;;2.67;;
8131;SDS011;4107;49.212;9.198;2022-08-05T01:49:27;3.83;;;2.80;;
8131;SDS011;4107;49.212;9.198;2022-08-05T01:51:55;3.00;;;2.47;;
8131;SDS011;4107;49.212;9.198;2022-08-05T01:54:23;6.87;;;2.90;;
8131;SDS011;4107;49.212;9.198;2022-08-05T01:56:53;4.23;;;2.77;;
8131;SDS011;4107;49.212;9.198;2022-08-05T01:59:21;4.97;;;2.93;;
8131;SDS011;4107;49.212;9.198;2022-08-05T02:01:48;3.50;;;2.80;;
8131;SDS011;4107;49.212;9.198;2022-08-05T02:04:15;4.27;;;2.60;;
8131;SDS011;4107;49.212;9.198;2022-08-05T02:06:44;6.17;;;2.63;;
8131;SDS011;4107;49.212;9.198;2022-08-05T02:09:09;4.37;;;2.63;;
8131;SDS011;4107;49.212;9.198;2022-08-05T02:11:44;3.87;;;2.67;;
8131;SDS011;4107;49.212;9.198;2022-08-05T02:14:25;4.23;;;2.83;;
8131;SDS011;4107;49.212;9.198;2022-08-05T02:16:54;3.57;;;2.90;;
8131;SDS011;4107;49.212;9.198;2022-08-05T02:19:35;4.33;;;2.80;;
8131;SDS011;4107;49.212;9.198;2022-08-05T02:22:06;3.10;;;2.80;;
8131;SDS011;4107;49.212;9.198;2022-08-05T02:24:40;4.53;;;2.83;;
8131;SDS011;4107;49.212;9.198;2022-08-05T02:27:07;4.23;;;2.90;;
8131;SDS011;4107;49.212;9.198;2022-08-05T02:29:35;3.13;;;2.60;;
8131;SDS011;4107;49.212;9.198;2022-08-05T02:32:03;4.37;;;2.90;;
8131;SDS011;4107;49.212;9.198;2022-08-05T02:34:32;4.27;;;2.90;;
8131;SDS011;4107;49.212;9.198;2022-08-05T02:37:00;6.00;;;2.83;;
8131;SDS011;4107;49.212;9.198;2022-08-05T02:39:30;5.30;;;3.23;;
8131;SDS011;4107;49.212;9.198;2022-08-05T02:42:00;3.30;;;2.70;;
8131;SDS011;4107;49.212;9.198;2022-08-05T02:44:28;3.23;;;2.93;;
8131;SDS011;4107;49.212;9.198;2022-08-05T02:46:56;3.90;;;3.10;;
8131;SDS011;4107;49.212;9.198;2022-08-05T02:49:23;4.50;;;2.83;;
8131;SDS011;4107;49.212;9.198;2022-08-05T02:51:50;5.27;;;3.00;;
8131;SDS011;4107;49.212;9.198;2022-08-05T02:54:16;5.83;;;3.10;;
8131;SDS011;4107;49.212;9.198;2022-08-05T02:56:44;3.30;;;2.83;;
8131;SDS011;4107;49.212;9.198;2022-08-05T02:59:11;3.43;;;3.03;;
8131;SDS011;4107;49.212;9.198;2022-08-05T03:01:38;3.23;;;2.70;;
8131;SDS011;4107;49.212;9.198;2022-08-05T03:04:05;3.67;;;3.00;;
8131;SDS011;4107;49.212;9.198;2022-08-05T03:06:37;3.33;;;2.67;;
8131;SDS011;4107;49.212;9.198;2022-08-05T03:09:06;3.23;;;2.80;;
8131;SDS011;4107;49.212;9.198;2022-08-05T03:11:32;3.97;;;3.17;;
8131;SDS011;4107;49.212;9.198;2022-08-05T03:13:58;4.03;;;2.73;;
8131;SDS011;4107;49.212;9.198;2022-08-05T03:16:23;6.43;;;3.10;;
8131;SDS011;4107;49.212;9.198;2022-08-05T03:18:49;4.83;;;3.50;;
8131;SDS011;4107;49.212;9.198;2022-08-05T03:21:15;4.73;;;3.30;;
8131;SDS011;4107;49.212;9.198;2022-08-05T03:23:41;4.30;;;2.90;;
8131;SDS011;4107;49.212;9.198;2022-08-05T03:26:08;5.57;;;3.30;;
8131;SDS011;4107;49.212;9.198;2022-08-05T03:28:34;5.40;;;2.90;;
8131;SDS011;4107;49.212;9.198;2022-08-05T03:31:01;4.60;;;3.20;;
8131;SDS011;4107;49.212;9.198;2022-08-05T03:33:27;3.50;;;3.20;;
8131;SDS011;4107;49.212;9.198;2022-08-05T03:35:54;3.17;;;2.87;;
8131;SDS011;4107;49.212;9.198;2022-08-05T03:38:21;3.17;;;2.70;;
8131;SDS011;4107;49.212;9.198;2022-08-05T03:40:48;4.27;;;2.90;;
8131;SDS011;4107;49.212;9.198;2022-08-05T03:43:14;4.40;;;3.00;;
8131;SDS011;4107;49.212;9.198;2022-08-05T03:45:41;4.70;;;3.00;;
8131;SDS011;4107;49.212;9.198;2022-08-05T03:48:07;3.20;;;2.87;;
8131;SDS011;4107;49.212;9.198;2022-08-05T03:50:42;3.70;;;2.93;;
8131;SDS011;4107;49.212;9.198;2022-08-05T03:53:18;4.60;;;3.00;;
8131;SDS011;4107;49.212;9.198;2022-08-05T03:56:10;3.63;;;2.57;;
8131;SDS011;4107;49.212;9.198;2022-08-05T03:58:41;3.60;;;3.27;;
8131;SDS011;4107;49.212;9.198;2022-08-05T04:01:10;3.13;;;2.80;;
8131;SDS011;4107;49.212;9.198;2022-08-05T04:03:40;4.87;;;2.73;;
8131;SDS011;4107;49.212;9.198;2022-08-05T04:06:08;5.60;;;3.10;;
8131;SDS011;4107;49.212;9.198;2022-08-05T04:08:34;7.50;;;3.07;;
8131;SDS011;4107;49.212;9.198;2022-08-05T04:11:01;4.83;;;3.20;;
8131;SDS011;4107;49.212;9.198;2022-08-05T04:13:28;6.60;;;3.30;;
8131;SDS011;4107;49.212;9.198;2022-08-05T04:15:55;4.40;;;3.43;;
8131;SDS011;4107;49.212;9.198;2022-08-05T04:18:21;5.97;;;3.77;;
8131;SDS011;4107;49.212;9.198;2022-08-05T04:20:52;6.07;;;3.73;;
8131;SDS011;4107;49.212;9.198;2022-08-05T04:23:22;5.17;;;3.13;;
8131;SDS011;4107;49.212;9.198;2022-08-05T04:25:49;6.63;;;3.50;;
8131;SDS011;4107;49.212;9.198;2022-08-05T04:28:15;8.63;;;3.70;;
8131;SDS011;4107;49.212;9.198;2022-08-05T04:30:41;3.60;;;3.10;;
8131;SDS011;4107;49.212;9.198;2022-08-05T04:33:07;5.43;;;3.40;;
8131;SDS011;4107;49.212;9.198;2022-08-05T04:35:32;7.83;;;3.37;;
8131;SDS011;4107;49.212;9.198;2022-08-05T04:37:58;6.10;;;3.50;;
8131;SDS011;4107;49.212;9.198;2022-08-05T04:40:23;5.57;;;3.30;;
8131;SDS011;4107;49.212;9.198;2022-08-05T04:42:49;6.30;;;3.30;;
8131;SDS011;4107;49.212;9.198;2022-08-05T04:45:15;4.00;;;3.20;;
8131;SDS011;4107;49.212;9.198;2022-08-05T04:47:40;4.63;;;3.20;;
8131;SDS011;4107;49.212;9.198;2022-08-05T04:50:06;4.07;;;3.03;;
8131;SDS011;4107;49.212;9.198;2022-08-05T04:52:32;6.83;;;3.53;;
8131;SDS011;4107;49.212;9.198;2022-08-05T04:54:58;5.20;;;2.80;;
8131;SDS011;4107;49.212;9.198;2022-08-05T04:57:24;5.57;;;3.53;;
8131;SDS011;4107;49.212;9.198;2022-08-05T04:59:50;5.80;;;3.20;;
8131;SDS011;4107;49.212;9.198;2022-08-05T05:02:16;5.87;;;3.73;;
8131;SDS011;4107;49.212;9.198;2022-08-05T05:04:41;6.33;;;3.23;;
8131;SDS011;4107;49.212;9.198;2022-08-05T05:07:07;4.53;;;3.63;;
8131;SDS011;4107;49.212;9.198;2022-08-05T05:09:32;5.93;;;3.30;;
8131;SDS011;4107;49.212;9.198;2022-08-05T05:11:58;4.30;;;3.70;;
8131;SDS011;4107;49.212;9.198;2022-08-05T05:14:23;8.40;;;3.90;;
8131;SDS011;4107;49.212;9.198;2022-08-05T05:16:50;6.00;;;3.90;;
8131;SDS011;4107;49.212;9.198;2022-08-05T05:19:15;5.23;;;4.17;;
8131;SDS011;4107;49.212;9.198;2022-08-05T05:21:41;4.90;;;3.57;;
8131;SDS011;4107;49.212;9.198;2022-08-05T05:24:06;4.43;;;3.83;;
8131;SDS011;4107;49.212;9.198;2022-08-05T05:26:32;5.23;;;3.80;;
8131;SDS011;4107;49.212;9.198;2022-08-05T05:28:58;6.60;;;4.30;;
8131;SDS011;4107;49.212;9.198;2022-08-05T05:31:26;9.10;;;3.57;;
8131;SDS011;4107;49.212;9.198;2022-08-05T05:33:52;4.03;;;3.57;;
8131;SDS011;4107;49.212;9.198;2022-08-05T05:36:18;6.67;;;3.40;;
8131;SDS011;4107;49.212;9.198;2022-08-05T05:38:43;4.10;;;3.50;;
8131;SDS011;4107;49.212;9.198;2022-08-05T05:41:09;5.27;;;3.37;;
8131;SDS011;4107;49.212;9.198;2022-08-05T05:43:38;5.60;;;3.30;;
8131;SDS011;4107;49.212;9.198;2022-08-05T05:46:03;3.47;;;3.10;;
8131;SDS011;4107;49.212;9.198;2022-08-05T05:48:29;4.97;;;3.57;;
8131;SDS011;4107;49.212;9.198;2022-08-05T05:50:55;5.20;;;3.50;;
8131;SDS011;4107;49.212;9.198;2022-08-05T05:53:21;5.23;;;3.00;;
8131;SDS011;4107;49.212;9.198;2022-08-05T05:55:46;5.23;;;2.70;;
8131;SDS011;4107;49.212;9.198;2022-08-05T05:58:12;3.77;;;3.37;;
8131;SDS011;4107;49.212;9.198;2022-08-05T06:00:37;5.20;;;2.90;;
8131;SDS011;4107;49.212;9.198;2022-08-05T06:03:03;3.60;;;2.90;;
8131;SDS011;4107;49.212;9.198;2022-08-05T06:05:29;4.53;;;3.40;;
8131;SDS011;4107;49.212;9.198;2022-08-05T06:07:54;3.60;;;3.30;;
8131;SDS011;4107;49.212;9.198;2022-08-05T06:10:20;4.60;;;3.10;;
8131;SDS011;4107;49.212;9.198;2022-08-05T06:12:46;5.93;;;3.20;;
8131;SDS011;4107;49.212;9.198;2022-08-05T06:15:11;3.80;;;3.40;;
8131;SDS011;4107;49.212;9.198;2022-08-05T06:17:37;3.10;;;2.80;;
8131;SDS011;4107;49.212;9.198;2022-08-05T06:20:03;4.00;;;3.30;;
8131;SDS011;4107;49.212;9.198;2022-08-05T06:22:30;5.28;;;3.47;;
8131;SDS011;4107;49.212;9.198;2022-08-05T06:24:57;4.80;;;3.20;;
8131;SDS011;4107;49.212;9.198;2022-08-05T06:27:23;3.97;;;3.08;;
8131;SDS011;4107;49.212;9.198;2022-08-05T06:29:52;4.53;;;2.58;;
8131;SDS011;4107;49.212;9.198;2022-08-05T06:32:18;3.40;;;2.78;;
8131;SDS011;4107;49.212;9.198;2022-08-05T06:34:43;4.05;;;3.00;;
8131;SDS011;4107;49.212;9.198;2022-08-05T06:37:09;4.35;;;3.10;;
8131;SDS011;4107;49.212;9.198;2022-08-05T06:39:35;3.72;;;3.15;;
8131;SDS011;4107;49.212;9.198;2022-08-05T06:42:03;9.27;;;2.70;;
8131;SDS011;4107;49.212;9.198;2022-08-05T06:44:29;4.30;;;2.60;;
8131;SDS011;4107;49.212;9.198;2022-08-05T06:46:54;6.25;;;2.80;;
8131;SDS011;4107;49.212;9.198;2022-08-05T06:49:20;2.72;;;2.53;;
8131;SDS011;4107;49.212;9.198;2022-08-05T06:51:46;3.45;;;2.55;;
8131;SDS011;4107;49.212;9.198;2022-08-05T06:54:12;3.67;;;3.05;;
8131;SDS011;4107;49.212;9.198;2022-08-05T06:56:38;3.17;;;2.88;;
8131;SDS011;4107;49.212;9.198;2022-08-05T06:59:04;3.00;;;2.80;;
8131;SDS011;4107;49.212;9.198;2022-08-05T07:01:31;3.30;;;2.40;;
8131;SDS011;4107;49.212;9.198;2022-08-05T07:03:56;3.87;;;3.00;;
8131;SDS011;4107;49.212;9.198;2022-08-05T07:06:22;4.17;;;2.93;;
8131;SDS011;4107;49.212;9.198;2022-08-05T07:08:48;4.97;;;3.10;;
8131;SDS011;4107;49.212;9.198;2022-08-05T07:11:14;3.07;;;2.87;;
8131;SDS011;4107;49.212;9.198;2022-08-05T07:13:40;3.30;;;3.00;;
8131;SDS011;4107;49.212;9.198;2022-08-05T07:16:28;3.30;;;3.00;;
8131;SDS011;4107;49.212;9.198;2022-08-05T07:19:13;5.57;;;3.33;;
8131;SDS011;4107;49.212;9.198;2022-08-05T07:21:39;3.50;;;3.20;;
8131;SDS011;4107;49.212;9.198;2022-08-05T07:24:05;3.47;;;3.17;;
8131;SDS011;4107;49.212;9.198;2022-08-05T07:26:31;4.33;;;3.20;;
8131;SDS011;4107;49.212;9.198;2022-08-05T07:28:56;3.20;;;2.90;;
8131;SDS011;4107;49.212;9.198;2022-08-05T07:31:22;3.10;;;2.80;;
8131;SDS011;4107;49.212;9.198;2022-08-05T07:33:48;6.30;;;3.20;;
8131;SDS011;4107;49.212;9.198;2022-08-05T07:36:14;4.17;;;2.97;;
8131;SDS011;4107;49.212;9.198;2022-08-05T07:38:42;5.88;;;3.03;;
8131;SDS011;4107;49.212;9.198;2022-08-05T07:41:08;2.60;;;2.40;;
8131;SDS011;4107;49.212;9.198;2022-08-05T07:43:36;5.95;;;2.67;;
8131;SDS011;4107;49.212;9.198;2022-08-05T07:46:01;2.80;;;2.55;;
8131;SDS011;4107;49.212;9.198;2022-08-05T07:48:27;5.35;;;2.15;;
8131;SDS011;4107;49.212;9.198;2022-08-05T07:50:53;2.60;;;2.40;;
8131;SDS011;4107;49.212;9.198;2022-08-05T07:53:21;2.60;;;2.40;;
8131;SDS011;4107;49.212;9.198;2022-08-05T07:55:47;3.53;;;2.53;;
8131;SDS011;4107;49.212;9.198;2022-08-05T07:58:12;2.78;;;2.53;;
8131;SDS011;4107;49.212;9.198;2022-08-05T08:00:38;3.40;;;2.42;;
8131;SDS011;4107;49.212;9.198;2022-08-05T08:03:08;3.17;;;2.65;;
8131;SDS011;4107;49.212;9.198;2022-08-05T08:05:35;2.47;;;2.17;;
8131;SDS011;4107;49.212;9.198;2022-08-05T08:08:01;3.47;;;2.58;;
8131;SDS011;4107;49.212;9.198;2022-08-05T08:10:27;3.13;;;2.47;;
8131;SDS011;4107;49.212;9.198;2022-08-05T08:12:56;3.28;;;2.40;;
8131;SDS011;4107;49.212;9.198;2022-08-05T08:15:22;3.63;;;2.65;;
8131;SDS011;4107;49.212;9.198;2022-08-05T08:17:47;4.30;;;2.30;;
8131;SDS011;4107;49.212;9.198;2022-08-05T08:20:13;4.15;;;2.10;;
8131;SDS011;4107;49.212;9.198;2022-08-05T08:22:39;5.05;;;2.60;;
8131;SDS011;4107;49.212;9.198;2022-08-05T08:25:04;4.82;;;2.28;;
8131;SDS011;4107;49.212;9.198;2022-08-05T08:27:31;2.30;;;2.10;;
8131;SDS011;4107;49.212;9.198;2022-08-05T08:29:57;3.28;;;2.30;;
8131;SDS011;4107;49.212;9.198;2022-08-05T08:32:22;2.20;;;2.00;;
8131;SDS011;4107;49.212;9.198;2022-08-05T08:34:48;4.03;;;2.03;;
8131;SDS011;4107;49.212;9.198;2022-08-05T08:37:15;4.32;;;2.08;;
8131;SDS011;4107;49.212;9.198;2022-08-05T08:39:43;2.40;;;2.15;;
8131;SDS011;4107;49.212;9.198;2022-08-05T08:42:09;3.35;;;2.15;;
8131;SDS011;4107;49.212;9.198;2022-08-05T08:44:35;7.28;;;2.55;;
8131;SDS011;4107;49.212;9.198;2022-08-05T08:47:02;4.45;;;2.00;;
8131;SDS011;4107;49.212;9.198;2022-08-05T08:49:29;2.25;;;2.05;;
8131;SDS011;4107;49.212;9.198;2022-08-05T08:52:11;3.25;;;2.40;;
8131;SDS011;4107;49.212;9.198;2022-08-05T08:54:40;2.75;;;2.25;;
8131;SDS011;4107;49.212;9.198;2022-08-05T08:57:07;2.72;;;2.40;;
8131;SDS011;4107;49.212;9.198;2022-08-05T08:59:33;3.42;;;2.17;;
8131;SDS011;4107;49.212;9.198;2022-08-05T09:01:59;3.00;;;2.00;;
8131;SDS011;4107;49.212;9.198;2022-08-05T09:04:29;2.20;;;2.00;;
8131;SDS011;4107;49.212;9.198;2022-08-05T09:06:54;2.67;;;2.00;;
8131;SDS011;4107;49.212;9.198;2022-08-05T09:09:20;2.97;;;2.00;;
8131;SDS011;4107;49.212;9.198;2022-08-05T09:11:46;4.25;;;2.05;;
8131;SDS011;4107;49.212;9.198;2022-08-05T09:14:11;2.42;;;2.15;;
8131;SDS011;4107;49.212;9.198;2022-08-05T09:16:38;2.33;;;2.10;;
8131;SDS011;4107;49.212;9.198;2022-08-05T09:19:05;4.28;;;1.90;;
8131;SDS011;4107;49.212;9.198;2022-08-05T09:21:32;1.98;;;1.88;;
8131;SDS011;4107;49.212;9.198;2022-08-05T09:24:03;2.17;;;1.73;;
8131;SDS011;4107;49.212;9.198;2022-08-05T09:26:31;2.47;;;2.28;;
8131;SDS011;4107;49.212;9.198;2022-08-05T09:28:58;2.28;;;2.00;;
8131;SDS011;4107;49.212;9.198;2022-08-05T09:31:25;2.58;;;2.03;;
8131;SDS011;4107;49.212;9.198;2022-08-05T09:33:52;2.67;;;2.00;;
8131;SDS011;4107;49.212;9.198;2022-08-05T09:36:20;2.65;;;2.00;;
8131;SDS011;4107;49.212;9.198;2022-08-05T09:38:55;3.05;;;2.28;;
8131;SDS011;4107;49.212;9.198;2022-08-05T09:41:31;2.65;;;2.00;;
8131;SDS011;4107;49.212;9.198;2022-08-05T09:43:57;2.78;;;1.90;;
8131;SDS011;4107;49.212;9.198;2022-08-05T09:46:29;2.38;;;1.90;;
8131;SDS011;4107;49.212;9.198;2022-08-05T09:48:57;2.92;;;2.10;;
8131;SDS011;4107;49.212;9.198;2022-08-05T09:51:31;2.00;;;1.90;;
8131;SDS011;4107;49.212;9.198;2022-08-05T09:53:58;3.65;;;2.00;;
8131;SDS011;4107;49.212;9.198;2022-08-05T09:58:57;2.03;;;1.83;;
8131;SDS011;4107;49.212;9.198;2022-08-05T10:01:24;3.60;;;2.38;;
8131;SDS011;4107;49.212;9.198;2022-08-05T10:03:58;3.92;;;1.98;;
8131;SDS011;4107;49.212;9.198;2022-08-05T10:06:27;3.80;;;2.50;;
8131;SDS011;4107;49.212;9.198;2022-08-05T10:08:52;1.70;;;1.60;;
8131;SDS011;4107;49.212;9.198;2022-08-05T10:11:18;2.05;;;1.67;;
8131;SDS011;4107;49.212;9.198;2022-08-05T10:13:44;2.65;;;1.88;;
8131;SDS011;4107;49.212;9.198;2022-08-05T10:16:29;5.32;;;1.85;;
8131;SDS011;4107;49.212;9.198;2022-08-05T10:19:00;2.97;;;1.73;;
8131;SDS011;4107;49.212;9.198;2022-08-05T10:21:26;1.58;;;1.48;;
8131;SDS011;4107;49.212;9.198;2022-08-05T10:23:53;2.63;;;1.80;;
8131;SDS011;4107;49.212;9.198;2022-08-05T10:26:19;2.47;;;1.98;;
8131;SDS011;4107;49.212;9.198;2022-08-05T10:28:45;2.38;;;1.77;;
8131;SDS011;4107;49.212;9.198;2022-08-05T10:31:12;2.22;;;1.70;;
8131;SDS011;4107;49.212;9.198;2022-08-05T10:33:39;2.25;;;2.05;;
8131;SDS011;4107;49.212;9.198;2022-08-05T10:36:05;2.55;;;1.73;;
8131;SDS011;4107;49.212;9.198;2022-08-05T10:38:32;5.38;;;2.30;;
8131;SDS011;4107;49.212;9.198;2022-08-05T10:41:08;4.05;;;2.00;;
8131;SDS011;4107;49.212;9.198;2022-08-05T10:43:59;2.13;;;1.75;;
8131;SDS011;4107;49.212;9.198;2022-08-05T10:49:33;2.70;;;1.95;;
8131;SDS011;4107;49.212;9.198;2022-08-05T10:51:58;2.15;;;1.95;;
8131;SDS011;4107;49.212;9.198;2022-08-05T10:57:12;3.33;;;1.90;;
8131;SDS011;4107;49.212;9.198;2022-08-05T10:59:51;2.38;;;2.00;;
8131;SDS011;4107;49.212;9.198;2022-08-05T11:02:35;1.88;;;1.77;;
8131;SDS011;4107;49.212;9.198;2022-08-05T11:05:05;2.22;;;1.95;;
8131;SDS011;4107;49.212;9.198;2022-08-05T11:07:33;3.63;;;1.90;;
8131;SDS011;4107;49.212;9.198;2022-08-05T11:10:00;3.70;;;2.03;;
8131;SDS011;4107;49.212;9.198;2022-08-05T11:17:33;2.25;;;1.95;;
8131;SDS011;4107;49.212;9.198;2022-08-05T11:20:04;2.92;;;2.05;;
8131;SDS011;4107;49.212;9.198;2022-08-05T11:22:37;2.40;;;2.13;;
8131;SDS011;4107;49.212;9.198;2022-08-05T11:25:28;5.60;;;2.08;;
8131;SDS011;4107;49.212;9.198;2022-08-05T11:28:42;1.95;;;1.85;;
8131;SDS011;4107;49.212;9.198;2022-08-05T11:33:30;4.50;;;1.92;;
8131;SDS011;4107;49.212;9.198;2022-08-05T11:36:01;1.98;;;1.50;;
8131;SDS011;4107;49.212;9.198;2022-08-05T11:41:03;3.22;;;1.90;;
8131;SDS011;4107;49.212;9.198;2022-08-05T11:43:30;2.03;;;1.83;;
8131;SDS011;4107;49.212;9.198;2022-08-05T11:45:56;2.42;;;1.70;;
8131;SDS011;4107;49.212;9.198;2022-08-05T11:48:23;3.35;;;1.70;;
8131;SDS011;4107;49.212;9.198;2022-08-05T11:50:52;2.63;;;1.98;;
8131;SDS011;4107;49.212;9.198;2022-08-05T11:53:19;2.50;;;1.83;;
8131;SDS011;4107;49.212;9.198;2022-08-05T11:55:56;3.53;;;1.80;;
8131;SDS011;4107;49.212;9.198;2022-08-05T12:01:02;1.90;;;1.80;;
8131;SDS011;4107;49.212;9.198;2022-08-05T12:03:43;2.20;;;1.83;;
8131;SDS011;4107;49.212;9.198;2022-08-05T12:06:10;2.00;;;1.90;;
8131;SDS011;4107;49.212;9.198;2022-08-05T12:08:39;2.70;;;2.08;;
8131;SDS011;4107;49.212;9.198;2022-08-05T12:11:13;1.70;;;1.60;;
8131;SDS011;4107;49.212;9.198;2022-08-05T12:14:03;3.38;;;1.90;;
8131;SDS011;4107;49.212;9.198;2022-08-05T12:16:33;2.20;;;2.03;;
8131;SDS011;4107;49.212;9.198;2022-08-05T12:19:07;2.80;;;2.00;;
8131;SDS011;4107;49.212;9.198;2022-08-05T12:21:44;2.15;;;1.70;;
8131;SDS011;4107;49.212;9.198;2022-08-05T12:24:18;2.42;;;1.80;;
8131;SDS011;4107;49.212;9.198;2022-08-05T12:29:15;1.92;;;1.70;;
8131;SDS011;4107;49.212;9.198;2022-08-05T12:31:46;1.90;;;1.80;;
8131;SDS011;4107;49.212;9.198;2022-08-05T12:34:20;2.50;;;2.00;;
8131;SDS011;4107;49.212;9.198;2022-08-05T12:36:48;3.67;;;2.10;;
8131;SDS011;4107;49.212;9.198;2022-08-05T12:39:19;2.30;;;2.10;;
8131;SDS011;4107;49.212;9.198;2022-08-05T12:41:45;2.10;;;1.90;;
8131;SDS011;4107;49.212;9.198;2022-08-05T12:44:14;6.25;;;2.03;;
8131;SDS011;4107;49.212;9.198;2022-08-05T12:46:42;2.25;;;2.05;;
8131;SDS011;4107;49.212;9.198;2022-08-05T12:49:16;3.80;;;2.10;;
8131;SDS011;4107;49.212;9.198;2022-08-05T12:54:08;2.50;;;2.00;;
8131;SDS011;4107;49.212;9.198;2022-08-05T12:56:33;2.35;;;1.67;;
8131;SDS011;4107;49.212;9.198;2022-08-05T12:59:21;4.30;;;1.80;;
8131;SDS011;4107;49.212;9.198;2022-08-05T13:04:30;1.88;;;1.75;;
8131;SDS011;4107;49.212;9.198;2022-08-05T13:06:58;2.55;;;2.35;;
8131;SDS011;4107;49.212;9.198;2022-08-05T13:09:29;1.92;;;1.70;;
8131;SDS011;4107;49.212;9.198;2022-08-05T13:12:02;2.20;;;2.00;;
8131;SDS011;4107;49.212;9.198;2022-08-05T13:14:43;2.13;;;2.00;;
8131;SDS011;4107;49.212;9.198;2022-08-05T13:17:20;3.08;;;2.17;;
8131;SDS011;4107;49.212;9.198;2022-08-05T13:22:33;2.10;;;1.90;;
8131;SDS011;4107;49.212;9.198;2022-08-05T13:25:02;3.47;;;2.53;;
8131;SDS011;4107;49.212;9.198;2022-08-05T13:27:30;2.78;;;2.05;;
8131;SDS011;4107;49.212;9.198;2022-08-05T13:30:01;3.53;;;1.80;;
8131;SDS011;4107;49.212;9.198;2022-08-05T13:32:28;5.45;;;2.20;;
8131;SDS011;4107;49.212;9.198;2022-08-05T13:34:54;2.00;;;1.75;;
8131;SDS011;4107;49.212;9.198;2022-08-05T13:37:20;4.72;;;1.90;;
8131;SDS011;4107;49.212;9.198;2022-08-05T13:39:46;5.18;;;1.80;;
8131;SDS011;4107;49.212;9.198;2022-08-05T13:42:14;2.60;;;2.38;;
8131;SDS011;4107;49.212;9.198;2022-08-05T13:44:41;2.95;;;2.00;;
8131;SDS011;4107;49.212;9.198;2022-08-05T13:47:07;2.90;;;2.20;;
8131;SDS011;4107;49.212;9.198;2022-08-05T13:49:32;2.50;;;2.30;;
8131;SDS011;4107;49.212;9.198;2022-08-05T13:52:08;4.78;;;2.20;;
8131;SDS011;4107;49.212;9.198;2022-08-05T13:54:35;2.55;;;2.35;;
8131;SDS011;4107;49.212;9.198;2022-08-05T13:57:03;2.85;;;2.45;;
8131;SDS011;4107;49.212;9.198;2022-08-05T13:59:29;3.88;;;2.03;;
8131;SDS011;4107;49.212;9.198;2022-08-05T14:01:55;5.75;;;2.40;;
8131;SDS011;4107;49.212;9.198;2022-08-05T14:04:22;2.58;;;2.38;;
8131;SDS011;4107;49.212;9.198;2022-08-05T14:07:07;2.72;;;2.30;;
8131;SDS011;4107;49.212;9.198;2022-08-05T14:09:35;2.58;;;2.38;;
8131;SDS011;4107;49.212;9.198;2022-08-05T14:12:01;2.67;;;2.47;;
8131;SDS011;4107;49.212;9.198;2022-08-05T14:14:28;3.97;;;2.35;;
8131;SDS011;4107;49.212;9.198;2022-08-05T14:16:53;2.92;;;2.60;;
8131;SDS011;4107;49.212;9.198;2022-08-05T14:19:19;3.83;;;2.70;;
8131;SDS011;4107;49.212;9.198;2022-08-05T14:21:50;2.55;;;2.35;;
8131;SDS011;4107;49.212;9.198;2022-08-05T14:24:16;2.95;;;2.63;;
8131;SDS011;4107;49.212;9.198;2022-08-05T14:26:42;4.03;;;2.67;;
8131;SDS011;4107;49.212;9.198;2022-08-05T14:29:07;4.30;;;2.70;;
8131;SDS011;4107;49.212;9.198;2022-08-05T14:31:33;3.45;;;2.70;;
8131;SDS011;4107;49.212;9.198;2022-08-05T14:33:58;7.55;;;2.90;;
8131;SDS011;4107;49.212;9.198;2022-08-05T14:36:27;3.40;;;2.85;;
8131;SDS011;4107;49.212;9.198;2022-08-05T14:38:52;3.03;;;2.72;;
8131;SDS011;4107;49.212;9.198;2022-08-05T14:41:18;2.97;;;2.70;;
8131;SDS011;4107;49.212;9.198;2022-08-05T14:43:44;2.75;;;2.55;;
8131;SDS011;4107;49.212;9.198;2022-08-05T14:46:10;3.05;;;2.67;;
8131;SDS011;4107;49.212;9.198;2022-08-05T14:48:36;3.78;;;2.70;;
8131;SDS011;4107;49.212;9.198;2022-08-05T14:51:08;2.97;;;2.75;;
8131;SDS011;4107;49.212;9.198;2022-08-05T14:53:33;2.70;;;2.50;;
8131;SDS011;4107;49.212;9.198;2022-08-05T14:55:59;3.60;;;2.78;;
8131;SDS011;4107;49.212;9.198;2022-08-05T14:58:24;2.90;;;2.70;;
8131;SDS011;4107;49.212;9.198;2022-08-05T15:00:50;3.38;;;2.95;;
8131;SDS011;4107;49.212;9.198;2022-08-05T15:03:17;3.13;;;2.60;;
8131;SDS011;4107;49.212;9.198;2022-08-05T15:05:45;5.18;;;2.80;;
8131;SDS011;4107;49.212;9.198;2022-08-05T15:08:11;3.05;;;2.55;;
8131;SDS011;4107;49.212;9.198;2022-08-05T15:10:36;2.70;;;2.50;;
8131;SDS011;4107;49.212;9.198;2022-08-05T15:13:02;2.92;;;2.72;;
8131;SDS011;4107;49.212;9.198;2022-08-05T15:15:28;2.70;;;2.50;;
8131;SDS011;4107;49.212;9.198;2022-08-05T15:17:54;4.93;;;2.88;;
8131;SDS011;4107;49.212;9.198;2022-08-05T15:20:22;6.30;;;2.60;;
8131;SDS011;4107;49.212;9.198;2022-08-05T15:22:49;3.20;;;2.88;;
8131;SDS011;4107;49.212;9.198;2022-08-05T15:25:15;3.03;;;2.78;;
8131;SDS011;4107;49.212;9.198;2022-08-05T15:27:41;4.53;;;2.80;;
8131;SDS011;4107;49.212;9.198;2022-08-05T15:30:07;3.13;;;2.70;;
8131;SDS011;4107;49.212;9.198;2022-08-05T15:32:34;2.67;;;2.47;;
8131;SDS011;4107;49.212;9.198;2022-08-05T15:35:03;2.90;;;2.40;;
8131;SDS011;4107;49.212;9.198;2022-08-05T15:37:29;2.60;;;2.40;;
8131;SDS011;4107;49.212;9.198;2022-08-05T15:39:54;3.47;;;2.35;;
8131;SDS011;4107;49.212;9.198;2022-08-05T15:42:21;4.00;;;2.45;;
8131;SDS011;4107;49.212;9.198;2022-08-05T15:44:48;2.65;;;2.20;;
8131;SDS011;4107;49.212;9.198;2022-08-05T15:47:14;4.43;;;2.25;;
8131;SDS011;4107;49.212;9.198;2022-08-05T15:49:40;2.70;;;2.50;;
8131;SDS011;4107;49.212;9.198;2022-08-05T15:52:06;3.13;;;2.67;;
8131;SDS011;4107;49.212;9.198;2022-08-05T15:54:32;3.40;;;2.42;;
8131;SDS011;4107;49.212;9.198;2022-08-05T15:56:57;2.53;;;2.30;;
8131;SDS011;4107;49.212;9.198;2022-08-05T15:59:23;2.30;;;2.20;;
8131;SDS011;4107;49.212;9.198;2022-08-05T16:01:49;3.20;;;2.33;;
8131;SDS011;4107;49.212;9.198;2022-08-05T16:04:19;2.70;;;2.50;;
8131;SDS011;4107;49.212;9.198;2022-08-05T16:06:45;2.65;;;2.42;;